sensor_id;sensor_type;location;lat;lon;timestamp;P1;durP1;ratioP1;P2;durP2;ratioP2
10565;SDS011;5331;48.148;16.326;2023-07-20T00:02:01;4.72;;;4.32;;
10565;SDS011;5331;48.148;16.326;2023-07-20T00:04:30;4.63;;;4.22;;
10565;SDS011;5331;48.148;16.326;2023-07-20T00:06:57;4.45;;;4.05;;
10565;SDS011;5331;48.148;16.326;2023-07-20T00:09:27;5.15;;;4.25;;
10565;SDS011;5331;48.148;16.326;2023-07-20T00:11:54;4.35;;;3.90;;
10565;SDS011;5331;48.148;16.326;2023-07-20T00:14:21;6.00;;;4.70;;
10565;SDS011;5331;48.148;16.326;2023-07-20T00:16:49;5.10;;;3.97;;
10565;SDS011;5331;48.148;16.326;2023-07-20T00:19:21;5.13;;;4.10;;
10565;SDS011;5331;48.148;16.326;2023-07-20T00:21:48;4.93;;;4.15;;
10565;SDS011;5331;48.148;16.326;2023-07-20T00:24:15;5.38;;;4.20;;
10565;SDS011;5331;48.148;16.326;2023-07-20T00:26:43;5.65;;;3.97;;
10565;SDS011;5331;48.148;16.326;2023-07-20T00:29:10;4.63;;;4.13;;
10565;SDS011;5331;48.148;16.326;2023-07-20T00:31:37;4.20;;;3.80;;
10565;SDS011;5331;48.148;16.326;2023-07-20T00:34:04;4.03;;;3.72;;
10565;SDS011;5331;48.148;16.326;2023-07-20T00:36:31;4.30;;;3.90;;
10565;SDS011;5331;48.148;16.326;2023-07-20T00:38:57;4.53;;;4.13;;
10565;SDS011;5331;48.148;16.326;2023-07-20T00:41:24;5.25;;;4.35;;
10565;SDS011;5331;48.148;16.326;2023-07-20T00:43:55;5.22;;;4.63;;
10565;SDS011;5331;48.148;16.326;2023-07-20T00:46:22;4.47;;;4.07;;
10565;SDS011;5331;48.148;16.326;2023-07-20T00:48:50;4.75;;;4.22;;
10565;SDS011;5331;48.148;16.326;2023-07-20T00:51:18;4.95;;;4.45;;
10565;SDS011;5331;48.148;16.326;2023-07-20T00:53:46;4.75;;;4.35;;
10565;SDS011;5331;48.148;16.326;2023-07-20T00:56:13;4.85;;;4.32;;
10565;SDS011;5331;48.148;16.326;2023-07-20T00:58:41;4.60;;;4.20;;
10565;SDS011;5331;48.148;16.326;2023-07-20T01:01:09;5.65;;;4.18;;
10565;SDS011;5331;48.148;16.326;2023-07-20T01:03:36;4.47;;;4.07;;
10565;SDS011;5331;48.148;16.326;2023-07-20T01:06:06;4.85;;;4.30;;
10565;SDS011;5331;48.148;16.326;2023-07-20T01:08:40;4.65;;;4.25;;
10565;SDS011;5331;48.148;16.326;2023-07-20T01:11:15;5.03;;;4.38;;
10565;SDS011;5331;48.148;16.326;2023-07-20T01:13:45;5.75;;;3.95;;
10565;SDS011;5331;48.148;16.326;2023-07-20T01:16:13;5.55;;;4.60;;
10565;SDS011;5331;48.148;16.326;2023-07-20T01:18:40;4.90;;;4.03;;
10565;SDS011;5331;48.148;16.326;2023-07-20T01:21:09;4.78;;;4.28;;
10565;SDS011;5331;48.148;16.326;2023-07-20T01:27:09;6.15;;;4.20;;
10565;SDS011;5331;48.148;16.326;2023-07-20T01:33:08;5.05;;;3.83;;
10565;SDS011;5331;48.148;16.326;2023-07-20T01:35:38;6.20;;;3.75;;
10565;SDS011;5331;48.148;16.326;2023-07-20T01:38:08;4.03;;;3.72;;
10565;SDS011;5331;48.148;16.326;2023-07-20T01:40:36;4.15;;;3.75;;
10565;SDS011;5331;48.148;16.326;2023-07-20T01:43:03;6.05;;;4.18;;
10565;SDS011;5331;48.148;16.326;2023-07-20T01:45:30;5.07;;;3.90;;
10565;SDS011;5331;48.148;16.326;2023-07-20T01:47:57;4.55;;;4.15;;
10565;SDS011;5331;48.148;16.326;2023-07-20T01:50:25;5.50;;;4.45;;
10565;SDS011;5331;48.148;16.326;2023-07-20T01:52:52;5.28;;;4.35;;
10565;SDS011;5331;48.148;16.326;2023-07-20T01:55:19;4.68;;;3.90;;
10565;SDS011;5331;48.148;16.326;2023-07-20T01:57:46;5.05;;;4.20;;
10565;SDS011;5331;48.148;16.326;2023-07-20T02:00:13;4.50;;;4.10;;
10565;SDS011;5331;48.148;16.326;2023-07-20T02:02:40;4.50;;;3.95;;
10565;SDS011;5331;48.148;16.326;2023-07-20T02:05:08;5.47;;;4.40;;
10565;SDS011;5331;48.148;16.326;2023-07-20T02:07:36;4.50;;;4.03;;
10565;SDS011;5331;48.148;16.326;2023-07-20T02:10:03;4.55;;;4.15;;
10565;SDS011;5331;48.148;16.326;2023-07-20T02:12:31;4.82;;;4.35;;
10565;SDS011;5331;48.148;16.326;2023-07-20T02:14:57;5.22;;;4.20;;
10565;SDS011;5331;48.148;16.326;2023-07-20T02:17:25;4.45;;;4.00;;
10565;SDS011;5331;48.148;16.326;2023-07-20T02:19:52;5.32;;;3.97;;
10565;SDS011;5331;48.148;16.326;2023-07-20T02:22:19;4.82;;;4.30;;
10565;SDS011;5331;48.148;16.326;2023-07-20T02:24:48;6.95;;;4.50;;
10565;SDS011;5331;48.148;16.326;2023-07-20T02:27:15;4.97;;;4.57;;
10565;SDS011;5331;48.148;16.326;2023-07-20T02:29:42;5.80;;;4.85;;
10565;SDS011;5331;48.148;16.326;2023-07-20T02:32:09;4.57;;;4.18;;
10565;SDS011;5331;48.148;16.326;2023-07-20T02:34:36;4.15;;;3.85;;
10565;SDS011;5331;48.148;16.326;2023-07-20T02:37:03;3.85;;;3.53;;
10565;SDS011;5331;48.148;16.326;2023-07-20T02:39:31;4.93;;;4.05;;
10565;SDS011;5331;48.148;16.326;2023-07-20T02:41:59;3.95;;;3.65;;
10565;SDS011;5331;48.148;16.326;2023-07-20T02:44:26;4.10;;;3.70;;
10565;SDS011;5331;48.148;16.326;2023-07-20T02:46:52;4.75;;;4.30;;
10565;SDS011;5331;48.148;16.326;2023-07-20T02:49:19;4.75;;;3.83;;
10565;SDS011;5331;48.148;16.326;2023-07-20T02:51:46;4.40;;;3.90;;
10565;SDS011;5331;48.148;16.326;2023-07-20T02:54:13;4.45;;;4.05;;
10565;SDS011;5331;48.148;16.326;2023-07-20T02:56:41;4.38;;;3.97;;
10565;SDS011;5331;48.148;16.326;2023-07-20T02:59:09;4.38;;;3.97;;
10565;SDS011;5331;48.148;16.326;2023-07-20T03:01:36;4.60;;;4.03;;
10565;SDS011;5331;48.148;16.326;2023-07-20T03:04:03;5.35;;;4.28;;
10565;SDS011;5331;48.148;16.326;2023-07-20T03:06:30;4.13;;;3.67;;
10565;SDS011;5331;48.148;16.326;2023-07-20T03:09:01;4.10;;;3.78;;
10565;SDS011;5331;48.148;16.326;2023-07-20T03:11:28;5.07;;;4.35;;
10565;SDS011;5331;48.148;16.326;2023-07-20T03:13:55;4.72;;;3.78;;
10565;SDS011;5331;48.148;16.326;2023-07-20T03:16:23;5.63;;;3.90;;
10565;SDS011;5331;48.148;16.326;2023-07-20T03:18:51;4.82;;;3.78;;
10565;SDS011;5331;48.148;16.326;2023-07-20T03:21:18;4.20;;;3.80;;
10565;SDS011;5331;48.148;16.326;2023-07-20T03:23:45;4.20;;;3.80;;
10565;SDS011;5331;48.148;16.326;2023-07-20T03:26:12;4.18;;;3.70;;
10565;SDS011;5331;48.148;16.326;2023-07-20T03:28:39;5.82;;;3.88;;
10565;SDS011;5331;48.148;16.326;2023-07-20T03:31:06;3.78;;;3.47;;
10565;SDS011;5331;48.148;16.326;2023-07-20T03:33:35;4.38;;;3.97;;
10565;SDS011;5331;48.148;16.326;2023-07-20T03:36:02;4.30;;;3.90;;
10565;SDS011;5331;48.148;16.326;2023-07-20T03:38:30;3.83;;;3.50;;
10565;SDS011;5331;48.148;16.326;2023-07-20T03:40:58;4.20;;;3.80;;
10565;SDS011;5331;48.148;16.326;2023-07-20T03:43:27;3.72;;;3.40;;
10565;SDS011;5331;48.148;16.326;2023-07-20T03:45:54;4.43;;;3.92;;
10565;SDS011;5331;48.148;16.326;2023-07-20T03:48:22;4.40;;;4.00;;
10565;SDS011;5331;48.148;16.326;2023-07-20T03:50:52;4.80;;;4.00;;
10565;SDS011;5331;48.148;16.326;2023-07-20T03:53:20;3.95;;;3.63;;
10565;SDS011;5331;48.148;16.326;2023-07-20T03:55:47;3.67;;;3.35;;
10565;SDS011;5331;48.148;16.326;2023-07-20T03:58:15;4.35;;;3.70;;
10565;SDS011;5331;48.148;16.326;2023-07-20T04:00:44;4.82;;;3.78;;
10565;SDS011;5331;48.148;16.326;2023-07-20T04:03:11;4.53;;;3.95;;
10565;SDS011;5331;48.148;16.326;2023-07-20T04:05:38;4.18;;;3.78;;
10565;SDS011;5331;48.148;16.326;2023-07-20T04:08:07;4.93;;;3.75;;
10565;SDS011;5331;48.148;16.326;2023-07-20T04:10:34;4.03;;;3.72;;
10565;SDS011;5331;48.148;16.326;2023-07-20T04:13:01;4.22;;;3.60;;
10565;SDS011;5331;48.148;16.326;2023-07-20T04:15:28;3.88;;;3.58;;
10565;SDS011;5331;48.148;16.326;2023-07-20T04:17:55;3.85;;;3.55;;
10565;SDS011;5331;48.148;16.326;2023-07-20T04:20:22;3.70;;;3.40;;
10565;SDS011;5331;48.148;16.326;2023-07-20T04:22:49;4.93;;;3.88;;
10565;SDS011;5331;48.148;16.326;2023-07-20T04:25:18;4.65;;;3.70;;
10565;SDS011;5331;48.148;16.326;2023-07-20T04:27:45;4.70;;;3.63;;
10565;SDS011;5331;48.148;16.326;2023-07-20T04:30:12;4.10;;;3.70;;
10565;SDS011;5331;48.148;16.326;2023-07-20T04:32:40;4.40;;;3.70;;
10565;SDS011;5331;48.148;16.326;2023-07-20T04:35:09;4.32;;;3.83;;
10565;SDS011;5331;48.148;16.326;2023-07-20T04:37:36;4.43;;;3.75;;
10565;SDS011;5331;48.148;16.326;2023-07-20T04:40:03;4.20;;;3.80;;
10565;SDS011;5331;48.148;16.326;2023-07-20T04:42:32;4.55;;;3.70;;
10565;SDS011;5331;48.148;16.326;2023-07-20T04:44:59;4.47;;;3.85;;
10565;SDS011;5331;48.148;16.326;2023-07-20T04:47:26;4.88;;;4.03;;
10565;SDS011;5331;48.148;16.326;2023-07-20T04:49:53;5.05;;;4.07;;
10565;SDS011;5331;48.148;16.326;2023-07-20T04:52:20;4.65;;;3.83;;
10565;SDS011;5331;48.148;16.326;2023-07-20T04:54:46;4.55;;;4.07;;
10565;SDS011;5331;48.148;16.326;2023-07-20T04:57:13;5.35;;;3.90;;
10565;SDS011;5331;48.148;16.326;2023-07-20T04:59:42;4.60;;;4.20;;
10565;SDS011;5331;48.148;16.326;2023-07-20T05:02:08;5.18;;;4.10;;
10565;SDS011;5331;48.148;16.326;2023-07-20T05:04:35;4.72;;;4.30;;
10565;SDS011;5331;48.148;16.326;2023-07-20T05:07:02;4.25;;;3.95;;
10565;SDS011;5331;48.148;16.326;2023-07-20T05:09:29;5.40;;;4.20;;
10565;SDS011;5331;48.148;16.326;2023-07-20T05:11:56;5.60;;;4.00;;
10565;SDS011;5331;48.148;16.326;2023-07-20T05:14:23;5.55;;;4.32;;
10565;SDS011;5331;48.148;16.326;2023-07-20T05:16:51;6.55;;;4.30;;
10565;SDS011;5331;48.148;16.326;2023-07-20T05:19:18;5.35;;;4.10;;
10565;SDS011;5331;48.148;16.326;2023-07-20T05:21:45;5.28;;;3.80;;
10565;SDS011;5331;48.148;16.326;2023-07-20T05:24:12;4.38;;;3.97;;
10565;SDS011;5331;48.148;16.326;2023-07-20T05:26:39;4.70;;;4.13;;
10565;SDS011;5331;48.148;16.326;2023-07-20T05:29:06;5.15;;;4.38;;
10565;SDS011;5331;48.148;16.326;2023-07-20T05:31:32;5.65;;;4.40;;
10565;SDS011;5331;48.148;16.326;2023-07-20T05:34:02;4.05;;;3.70;;
10565;SDS011;5331;48.148;16.326;2023-07-20T05:36:29;4.72;;;4.20;;
10565;SDS011;5331;48.148;16.326;2023-07-20T05:38:56;5.47;;;4.20;;
10565;SDS011;5331;48.148;16.326;2023-07-20T05:41:23;4.60;;;4.20;;
10565;SDS011;5331;48.148;16.326;2023-07-20T05:43:49;4.80;;;4.40;;
10565;SDS011;5331;48.148;16.326;2023-07-20T05:46:16;4.63;;;4.22;;
10565;SDS011;5331;48.148;16.326;2023-07-20T05:48:43;4.00;;;3.67;;
10565;SDS011;5331;48.148;16.326;2023-07-20T05:51:11;4.57;;;4.13;;
10565;SDS011;5331;48.148;16.326;2023-07-20T05:53:39;4.50;;;3.90;;
10565;SDS011;5331;48.148;16.326;2023-07-20T05:56:05;5.10;;;3.90;;
10565;SDS011;5331;48.148;16.326;2023-07-20T05:58:35;4.40;;;4.00;;
10565;SDS011;5331;48.148;16.326;2023-07-20T06:01:04;7.05;;;3.95;;
10565;SDS011;5331;48.148;16.326;2023-07-20T06:03:34;4.50;;;4.10;;
10565;SDS011;5331;48.148;16.326;2023-07-20T06:06:02;4.40;;;3.90;;
10565;SDS011;5331;48.148;16.326;2023-07-20T06:08:32;5.20;;;4.05;;
10565;SDS011;5331;48.148;16.326;2023-07-20T06:10:59;4.47;;;4.07;;
10565;SDS011;5331;48.148;16.326;2023-07-20T06:13:26;4.63;;;3.75;;
10565;SDS011;5331;48.148;16.326;2023-07-20T06:15:53;4.57;;;3.83;;
10565;SDS011;5331;48.148;16.326;2023-07-20T06:18:20;5.97;;;3.50;;
10565;SDS011;5331;48.148;16.326;2023-07-20T06:20:49;4.93;;;3.90;;
10565;SDS011;5331;48.148;16.326;2023-07-20T06:23:16;3.97;;;3.58;;
10565;SDS011;5331;48.148;16.326;2023-07-20T06:25:45;5.32;;;3.70;;
10565;SDS011;5331;48.148;16.326;2023-07-20T06:28:12;4.05;;;3.70;;
10565;SDS011;5331;48.148;16.326;2023-07-20T06:30:39;5.55;;;3.85;;
10565;SDS011;5331;48.148;16.326;2023-07-20T06:33:07;4.22;;;3.78;;
10565;SDS011;5331;48.148;16.326;2023-07-20T06:35:33;4.38;;;3.78;;
10565;SDS011;5331;48.148;16.326;2023-07-20T06:38:01;4.80;;;3.78;;
10565;SDS011;5331;48.148;16.326;2023-07-20T06:40:30;4.40;;;3.42;;
10565;SDS011;5331;48.148;16.326;2023-07-20T06:42:58;5.25;;;3.47;;
10565;SDS011;5331;48.148;16.326;2023-07-20T06:45:25;4.10;;;3.70;;
10565;SDS011;5331;48.148;16.326;2023-07-20T06:47:52;4.10;;;3.80;;
10565;SDS011;5331;48.148;16.326;2023-07-20T06:50:19;3.90;;;3.60;;
10565;SDS011;5331;48.148;16.326;2023-07-20T06:52:46;4.22;;;3.63;;
10565;SDS011;5331;48.148;16.326;2023-07-20T06:55:14;4.00;;;3.60;;
10565;SDS011;5331;48.148;16.326;2023-07-20T06:57:41;4.63;;;3.58;;
10565;SDS011;5331;48.148;16.326;2023-07-20T07:00:10;4.00;;;3.70;;
10565;SDS011;5331;48.148;16.326;2023-07-20T07:02:37;4.05;;;3.67;;
10565;SDS011;5331;48.148;16.326;2023-07-20T07:05:05;4.15;;;3.80;;
10565;SDS011;5331;48.148;16.326;2023-07-20T07:07:32;4.05;;;3.75;;
10565;SDS011;5331;48.148;16.326;2023-07-20T07:09:59;5.68;;;3.65;;
10565;SDS011;5331;48.148;16.326;2023-07-20T07:12:28;4.57;;;3.60;;
10565;SDS011;5331;48.148;16.326;2023-07-20T07:14:55;4.47;;;4.10;;
10565;SDS011;5331;48.148;16.326;2023-07-20T07:17:24;5.90;;;4.15;;
10565;SDS011;5331;48.148;16.326;2023-07-20T07:19:51;4.65;;;4.13;;
10565;SDS011;5331;48.148;16.326;2023-07-20T07:22:19;3.70;;;3.40;;
10565;SDS011;5331;48.148;16.326;2023-07-20T07:24:46;4.60;;;4.20;;
10565;SDS011;5331;48.148;16.326;2023-07-20T07:27:13;4.13;;;3.83;;
10565;SDS011;5331;48.148;16.326;2023-07-20T07:29:41;4.10;;;3.70;;
10565;SDS011;5331;48.148;16.326;2023-07-20T07:32:09;4.75;;;3.90;;
10565;SDS011;5331;48.148;16.326;2023-07-20T07:34:38;3.80;;;3.50;;
10565;SDS011;5331;48.148;16.326;2023-07-20T07:37:05;4.32;;;3.95;;
10565;SDS011;5331;48.148;16.326;2023-07-20T07:39:32;4.22;;;3.83;;
10565;SDS011;5331;48.148;16.326;2023-07-20T07:42:00;4.63;;;3.78;;
10565;SDS011;5331;48.148;16.326;2023-07-20T07:44:27;4.00;;;3.67;;
10565;SDS011;5331;48.148;16.326;2023-07-20T07:46:54;4.50;;;4.13;;
10565;SDS011;5331;48.148;16.326;2023-07-20T07:49:21;4.22;;;3.92;;
10565;SDS011;5331;48.148;16.326;2023-07-20T07:51:49;3.88;;;3.58;;
10565;SDS011;5331;48.148;16.326;2023-07-20T07:54:16;4.53;;;4.10;;
10565;SDS011;5331;48.148;16.326;2023-07-20T07:56:43;4.22;;;3.83;;
10565;SDS011;5331;48.148;16.326;2023-07-20T07:59:10;4.65;;;3.88;;
10565;SDS011;5331;48.148;16.326;2023-07-20T08:01:37;5.25;;;3.90;;
10565;SDS011;5331;48.148;16.326;2023-07-20T08:04:05;4.25;;;3.55;;
10565;SDS011;5331;48.148;16.326;2023-07-20T08:06:31;4.30;;;3.90;;
10565;SDS011;5331;48.148;16.326;2023-07-20T08:09:00;4.57;;;3.92;;
10565;SDS011;5331;48.148;16.326;2023-07-20T08:11:29;3.92;;;3.63;;
10565;SDS011;5331;48.148;16.326;2023-07-20T08:13:59;4.25;;;3.90;;
10565;SDS011;5331;48.148;16.326;2023-07-20T08:16:26;3.95;;;3.55;;
10565;SDS011;5331;48.148;16.326;2023-07-20T08:18:52;6.07;;;4.50;;
10565;SDS011;5331;48.148;16.326;2023-07-20T08:21:19;4.60;;;4.20;;
10565;SDS011;5331;48.148;16.326;2023-07-20T08:23:46;4.18;;;3.83;;
10565;SDS011;5331;48.148;16.326;2023-07-20T08:26:14;4.38;;;3.92;;
10565;SDS011;5331;48.148;16.326;2023-07-20T08:28:43;4.95;;;3.80;;
10565;SDS011;5331;48.148;16.326;2023-07-20T08:31:13;4.43;;;4.03;;
10565;SDS011;5331;48.148;16.326;2023-07-20T08:33:40;4.47;;;4.07;;
10565;SDS011;5331;48.148;16.326;2023-07-20T08:36:07;4.35;;;3.80;;
10565;SDS011;5331;48.148;16.326;2023-07-20T08:38:34;4.38;;;3.95;;
10565;SDS011;5331;48.148;16.326;2023-07-20T08:41:01;4.32;;;3.92;;
10565;SDS011;5331;48.148;16.326;2023-07-20T08:43:30;5.70;;;3.75;;
10565;SDS011;5331;48.148;16.326;2023-07-20T08:45:59;3.90;;;3.60;;
10565;SDS011;5331;48.148;16.326;2023-07-20T08:48:27;4.88;;;3.85;;
10565;SDS011;5331;48.148;16.326;2023-07-20T08:50:55;3.92;;;3.45;;
10565;SDS011;5331;48.148;16.326;2023-07-20T08:53:25;4.88;;;3.78;;
10565;SDS011;5331;48.148;16.326;2023-07-20T08:55:55;4.88;;;2.95;;
10565;SDS011;5331;48.148;16.326;2023-07-20T08:58:22;3.65;;;3.28;;
10565;SDS011;5331;48.148;16.326;2023-07-20T09:00:53;3.53;;;3.22;;
10565;SDS011;5331;48.148;16.326;2023-07-20T09:03:21;3.85;;;3.25;;
10565;SDS011;5331;48.148;16.326;2023-07-20T09:05:48;3.45;;;3.20;;
10565;SDS011;5331;48.148;16.326;2023-07-20T09:08:15;5.95;;;3.78;;
10565;SDS011;5331;48.148;16.326;2023-07-20T09:10:42;5.03;;;3.53;;
10565;SDS011;5331;48.148;16.326;2023-07-20T09:13:09;6.57;;;3.80;;
10565;SDS011;5331;48.148;16.326;2023-07-20T09:15:42;3.28;;;2.97;;
10565;SDS011;5331;48.148;16.326;2023-07-20T09:18:14;3.53;;;3.22;;
10565;SDS011;5331;48.148;16.326;2023-07-20T09:20:50;3.70;;;3.40;;
10565;SDS011;5331;48.148;16.326;2023-07-20T09:23:17;5.00;;;3.30;;
10565;SDS011;5331;48.148;16.326;2023-07-20T09:25:44;4.10;;;3.17;;
10565;SDS011;5331;48.148;16.326;2023-07-20T09:28:15;3.03;;;2.67;;
10565;SDS011;5331;48.148;16.326;2023-07-20T09:30:42;3.40;;;2.97;;
10565;SDS011;5331;48.148;16.326;2023-07-20T09:33:19;4.30;;;3.10;;
10565;SDS011;5331;48.148;16.326;2023-07-20T09:35:47;3.28;;;2.90;;
10565;SDS011;5331;48.148;16.326;2023-07-20T09:38:15;4.15;;;2.80;;
10565;SDS011;5331;48.148;16.326;2023-07-20T09:40:42;4.35;;;3.03;;
10565;SDS011;5331;48.148;16.326;2023-07-20T09:43:09;3.10;;;2.75;;
10565;SDS011;5331;48.148;16.326;2023-07-20T09:45:39;4.80;;;2.80;;
10565;SDS011;5331;48.148;16.326;2023-07-20T09:48:07;3.38;;;2.90;;
10565;SDS011;5331;48.148;16.326;2023-07-20T09:50:40;3.42;;;2.70;;
10565;SDS011;5331;48.148;16.326;2023-07-20T09:53:09;3.72;;;3.10;;
10565;SDS011;5331;48.148;16.326;2023-07-20T09:55:39;3.28;;;2.97;;
10565;SDS011;5331;48.148;16.326;2023-07-20T09:58:08;3.20;;;3.00;;
10565;SDS011;5331;48.148;16.326;2023-07-20T10:00:36;3.42;;;3.13;;
10565;SDS011;5331;48.148;16.326;2023-07-20T10:03:04;3.85;;;3.03;;
10565;SDS011;5331;48.148;16.326;2023-07-20T10:05:32;6.25;;;3.40;;
10565;SDS011;5331;48.148;16.326;2023-07-20T10:08:02;3.22;;;2.92;;
10565;SDS011;5331;48.148;16.326;2023-07-20T10:10:29;3.38;;;3.13;;
10565;SDS011;5331;48.148;16.326;2023-07-20T10:12:59;3.05;;;2.85;;
10565;SDS011;5331;48.148;16.326;2023-07-20T10:15:29;3.38;;;3.03;;
10565;SDS011;5331;48.148;16.326;2023-07-20T10:18:03;4.00;;;2.80;;
10565;SDS011;5331;48.148;16.326;2023-07-20T10:20:35;3.50;;;2.90;;
10565;SDS011;5331;48.148;16.326;2023-07-20T10:23:07;3.25;;;2.83;;
10565;SDS011;5331;48.148;16.326;2023-07-20T10:25:35;3.80;;;3.17;;
10565;SDS011;5331;48.148;16.326;2023-07-20T10:28:04;3.22;;;2.90;;
10565;SDS011;5331;48.148;16.326;2023-07-20T10:30:32;3.20;;;3.00;;
10565;SDS011;5331;48.148;16.326;2023-07-20T10:33:00;3.20;;;2.90;;
10565;SDS011;5331;48.148;16.326;2023-07-20T10:35:28;5.60;;;2.80;;
10565;SDS011;5331;48.148;16.326;2023-07-20T10:38:00;6.35;;;3.60;;
10565;SDS011;5331;48.148;16.326;2023-07-20T10:40:32;3.40;;;3.10;;
10565;SDS011;5331;48.148;16.326;2023-07-20T10:43:00;3.35;;;2.90;;
10565;SDS011;5331;48.148;16.326;2023-07-20T10:45:35;3.65;;;3.35;;
10565;SDS011;5331;48.148;16.326;2023-07-20T10:48:16;3.45;;;2.97;;
10565;SDS011;5331;48.148;16.326;2023-07-20T10:50:44;3.58;;;2.90;;
10565;SDS011;5331;48.148;16.326;2023-07-20T10:53:13;3.17;;;2.92;;
10565;SDS011;5331;48.148;16.326;2023-07-20T10:55:42;3.55;;;2.97;;
10565;SDS011;5331;48.148;16.326;2023-07-20T10:58:12;3.70;;;3.40;;
10565;SDS011;5331;48.148;16.326;2023-07-20T11:00:59;2.92;;;2.65;;
10565;SDS011;5331;48.148;16.326;2023-07-20T11:03:31;3.85;;;3.45;;
10565;SDS011;5331;48.148;16.326;2023-07-20T11:05:59;4.13;;;3.05;;
10565;SDS011;5331;48.148;16.326;2023-07-20T11:08:40;3.05;;;2.75;;
10565;SDS011;5331;48.148;16.326;2023-07-20T11:11:22;4.50;;;3.05;;
10565;SDS011;5331;48.148;16.326;2023-07-20T11:13:56;3.67;;;2.92;;
10565;SDS011;5331;48.148;16.326;2023-07-20T11:16:37;2.92;;;2.72;;
10565;SDS011;5331;48.148;16.326;2023-07-20T11:19:14;3.60;;;2.92;;
10565;SDS011;5331;48.148;16.326;2023-07-20T11:21:43;4.25;;;3.22;;
10565;SDS011;5331;48.148;16.326;2023-07-20T11:24:11;3.10;;;2.60;;
10565;SDS011;5331;48.148;16.326;2023-07-20T11:26:43;3.45;;;3.00;;
10565;SDS011;5331;48.148;16.326;2023-07-20T11:29:11;3.03;;;2.60;;
10565;SDS011;5331;48.148;16.326;2023-07-20T11:31:39;5.25;;;2.90;;
10565;SDS011;5331;48.148;16.326;2023-07-20T11:34:07;2.90;;;2.70;;
10565;SDS011;5331;48.148;16.326;2023-07-20T11:36:36;3.92;;;3.10;;
10565;SDS011;5331;48.148;16.326;2023-07-20T11:39:04;2.92;;;2.70;;
10565;SDS011;5331;48.148;16.326;2023-07-20T11:41:32;3.17;;;2.88;;
10565;SDS011;5331;48.148;16.326;2023-07-20T11:44:01;4.60;;;2.67;;
10565;SDS011;5331;48.148;16.326;2023-07-20T11:46:28;2.92;;;2.70;;
10565;SDS011;5331;48.148;16.326;2023-07-20T11:48:56;3.88;;;2.72;;
10565;SDS011;5331;48.148;16.326;2023-07-20T11:51:24;3.83;;;2.60;;
10565;SDS011;5331;48.148;16.326;2023-07-20T11:53:52;4.32;;;2.83;;
10565;SDS011;5331;48.148;16.326;2023-07-20T11:56:19;2.70;;;2.50;;
10565;SDS011;5331;48.148;16.326;2023-07-20T11:58:46;3.72;;;2.60;;
10565;SDS011;5331;48.148;16.326;2023-07-20T12:01:16;3.42;;;2.20;;
10565;SDS011;5331;48.148;16.326;2023-07-20T12:03:45;2.92;;;2.35;;
10565;SDS011;5331;48.148;16.326;2023-07-20T12:06:14;3.72;;;2.40;;
10565;SDS011;5331;48.148;16.326;2023-07-20T12:08:41;3.30;;;2.30;;
10565;SDS011;5331;48.148;16.326;2023-07-20T12:11:09;2.53;;;2.35;;
10565;SDS011;5331;48.148;16.326;2023-07-20T12:13:37;3.38;;;2.28;;
10565;SDS011;5331;48.148;16.326;2023-07-20T12:16:10;3.35;;;2.40;;
10565;SDS011;5331;48.148;16.326;2023-07-20T12:18:41;2.38;;;2.17;;
10565;SDS011;5331;48.148;16.326;2023-07-20T12:21:09;2.55;;;2.35;;
10565;SDS011;5331;48.148;16.326;2023-07-20T12:23:37;4.93;;;2.35;;
10565;SDS011;5331;48.148;16.326;2023-07-20T12:26:08;2.45;;;2.15;;
10565;SDS011;5331;48.148;16.326;2023-07-20T12:28:38;2.67;;;2.45;;
10565;SDS011;5331;48.148;16.326;2023-07-20T12:31:07;2.70;;;2.50;;
10565;SDS011;5331;48.148;16.326;2023-07-20T12:33:35;2.42;;;2.15;;
10565;SDS011;5331;48.148;16.326;2023-07-20T12:36:03;2.83;;;2.40;;
10565;SDS011;5331;48.148;16.326;2023-07-20T12:38:31;2.45;;;2.15;;
10565;SDS011;5331;48.148;16.326;2023-07-20T12:40:59;2.47;;;2.05;;
10565;SDS011;5331;48.148;16.326;2023-07-20T12:43:27;5.05;;;2.40;;
10565;SDS011;5331;48.148;16.326;2023-07-20T12:45:54;3.22;;;2.10;;
10565;SDS011;5331;48.148;16.326;2023-07-20T12:48:22;2.40;;;2.30;;
10565;SDS011;5331;48.148;16.326;2023-07-20T12:50:49;2.85;;;2.55;;
10565;SDS011;5331;48.148;16.326;2023-07-20T12:53:17;2.30;;;2.05;;
10565;SDS011;5331;48.148;16.326;2023-07-20T12:55:44;3.22;;;2.40;;
10565;SDS011;5331;48.148;16.326;2023-07-20T12:58:11;2.50;;;2.30;;
10565;SDS011;5331;48.148;16.326;2023-07-20T13:00:39;2.15;;;2.05;;
10565;SDS011;5331;48.148;16.326;2023-07-20T13:03:06;3.05;;;2.10;;
10565;SDS011;5331;48.148;16.326;2023-07-20T13:05:33;2.20;;;2.10;;
10565;SDS011;5331;48.148;16.326;2023-07-20T13:08:01;2.40;;;2.13;;
10565;SDS011;5331;48.148;16.326;2023-07-20T13:10:29;3.58;;;2.22;;
10565;SDS011;5331;48.148;16.326;2023-07-20T13:12:56;2.30;;;2.10;;
10565;SDS011;5331;48.148;16.326;2023-07-20T13:15:24;3.35;;;2.17;;
10565;SDS011;5331;48.148;16.326;2023-07-20T13:17:56;2.85;;;2.35;;
10565;SDS011;5331;48.148;16.326;2023-07-20T13:20:23;3.78;;;2.58;;
10565;SDS011;5331;48.148;16.326;2023-07-20T13:22:51;2.10;;;2.00;;
10565;SDS011;5331;48.148;16.326;2023-07-20T13:25:18;2.83;;;2.20;;
10565;SDS011;5331;48.148;16.326;2023-07-20T13:27:47;2.35;;;2.15;;
10565;SDS011;5331;48.148;16.326;2023-07-20T13:30:14;2.30;;;2.10;;
10565;SDS011;5331;48.148;16.326;2023-07-20T13:32:42;2.35;;;2.00;;
10565;SDS011;5331;48.148;16.326;2023-07-20T13:35:09;2.67;;;2.17;;
10565;SDS011;5331;48.148;16.326;2023-07-20T13:37:36;2.30;;;2.20;;
10565;SDS011;5331;48.148;16.326;2023-07-20T13:40:04;2.58;;;2.13;;
10565;SDS011;5331;48.148;16.326;2023-07-20T13:42:33;2.45;;;2.33;;
10565;SDS011;5331;48.148;16.326;2023-07-20T13:45:02;2.53;;;2.30;;
10565;SDS011;5331;48.148;16.326;2023-07-20T13:47:30;2.30;;;2.13;;
10565;SDS011;5331;48.148;16.326;2023-07-20T13:49:57;2.30;;;2.10;;
10565;SDS011;5331;48.148;16.326;2023-07-20T13:52:24;2.30;;;2.17;;
10565;SDS011;5331;48.148;16.326;2023-07-20T13:54:51;3.08;;;2.20;;
10565;SDS011;5331;48.148;16.326;2023-07-20T13:57:18;2.53;;;2.10;;
10565;SDS011;5331;48.148;16.326;2023-07-20T13:59:45;2.63;;;1.98;;
10565;SDS011;5331;48.148;16.326;2023-07-20T14:02:15;2.92;;;2.20;;
10565;SDS011;5331;48.148;16.326;2023-07-20T14:04:42;2.55;;;2.00;;
10565;SDS011;5331;48.148;16.326;2023-07-20T14:07:09;2.28;;;2.15;;
10565;SDS011;5331;48.148;16.326;2023-07-20T14:09:37;2.25;;;2.08;;
10565;SDS011;5331;48.148;16.326;2023-07-20T14:12:05;2.58;;;2.30;;
10565;SDS011;5331;48.148;16.326;2023-07-20T14:14:33;2.35;;;2.10;;
10565;SDS011;5331;48.148;16.326;2023-07-20T14:17:00;2.10;;;2.00;;
10565;SDS011;5331;48.148;16.326;2023-07-20T14:19:28;3.03;;;2.38;;
10565;SDS011;5331;48.148;16.326;2023-07-20T14:21:55;3.45;;;2.30;;
10565;SDS011;5331;48.148;16.326;2023-07-20T14:24:24;2.30;;;2.20;;
10565;SDS011;5331;48.148;16.326;2023-07-20T14:26:51;2.30;;;2.15;;
10565;SDS011;5331;48.148;16.326;2023-07-20T14:29:19;4.30;;;2.40;;
10565;SDS011;5331;48.148;16.326;2023-07-20T14:31:46;2.65;;;2.40;;
10565;SDS011;5331;48.148;16.326;2023-07-20T14:34:15;2.72;;;2.30;;
10565;SDS011;5331;48.148;16.326;2023-07-20T14:36:45;2.53;;;2.03;;
10565;SDS011;5331;48.148;16.326;2023-07-20T14:39:12;2.42;;;2.33;;
10565;SDS011;5331;48.148;16.326;2023-07-20T14:41:39;2.40;;;2.20;;
10565;SDS011;5331;48.148;16.326;2023-07-20T14:44:06;2.65;;;2.10;;
10565;SDS011;5331;48.148;16.326;2023-07-20T14:46:33;4.13;;;2.10;;
10565;SDS011;5331;48.148;16.326;2023-07-20T14:49:00;2.78;;;2.33;;
10565;SDS011;5331;48.148;16.326;2023-07-20T14:51:27;3.22;;;2.15;;
10565;SDS011;5331;48.148;16.326;2023-07-20T14:53:59;2.80;;;2.25;;
10565;SDS011;5331;48.148;16.326;2023-07-20T14:56:26;2.20;;;2.10;;
10565;SDS011;5331;48.148;16.326;2023-07-20T14:58:53;2.40;;;2.20;;
10565;SDS011;5331;48.148;16.326;2023-07-20T15:01:20;2.40;;;2.20;;